sensor_id;sensor_type;location;lat;lon;timestamp;pressure;altitude;pressure_sealevel;temperature;humidity
24858;BME280;12935;50.782;6.074;2023-08-21T00:00:00;100119.22;;;20.62;100.00
24858;BME280;12935;50.782;6.074;2023-08-21T00:02:26;100110.69;;;20.56;100.00
24858;BME280;12935;50.782;6.074;2023-08-21T00:04:53;100113.66;;;20.62;100.00
24858;BME280;12935;50.782;6.074;2023-08-21T00:07:18;100121.88;;;20.65;100.00
24858;BME280;12935;50.782;6.074;2023-08-21T00:09:44;100108.44;;;20.64;100.00
24858;BME280;12935;50.782;6.074;2023-08-21T00:12:09;100106.09;;;20.62;100.00
24858;BME280;12935;50.782;6.074;2023-08-21T00:14:35;100110.22;;;20.71;100.00
24858;BME280;12935;50.782;6.074;2023-08-21T00:17:01;100107.56;;;20.67;100.00
24858;BME280;12935;50.782;6.074;2023-08-21T00:19:26;100123.31;;;20.70;100.00
24858;BME280;12935;50.782;6.074;2023-08-21T00:21:51;100114.44;;;20.62;100.00
24858;BME280;12935;50.782;6.074;2023-08-21T00:24:17;100110.00;;;20.65;100.00
24858;BME280;12935;50.782;6.074;2023-08-21T00:26:42;100105.09;;;20.69;100.00
24858;BME280;12935;50.782;6.074;2023-08-21T00:29:08;100111.09;;;20.67;100.00
24858;BME280;12935;50.782;6.074;2023-08-21T00:31:33;100099.56;;;20.69;100.00
24858;BME280;12935;50.782;6.074;2023-08-21T00:33:58;100103.66;;;20.64;100.00
24858;BME280;12935;50.782;6.074;2023-08-21T00:36:24;100101.81;;;20.49;100.00
24858;BME280;12935;50.782;6.074;2023-08-21T00:38:49;100096.25;;;20.49;100.00
24858;BME280;12935;50.782;6.074;2023-08-21T00:41:14;100101.94;;;20.45;100.00
24858;BME280;12935;50.782;6.074;2023-08-21T00:43:39;100103.69;;;20.52;100.00
24858;BME280;12935;50.782;6.074;2023-08-21T00:46:05;100096.47;;;20.54;100.00
24858;BME280;12935;50.782;6.074;2023-08-21T00:48:31;100102.06;;;20.42;100.00
24858;BME280;12935;50.782;6.074;2023-08-21T00:50:56;100109.28;;;20.39;100.00
24858;BME280;12935;50.782;6.074;2023-08-21T00:53:23;100096.41;;;20.45;100.00
24858;BME280;12935;50.782;6.074;2023-08-21T00:55:48;100099.03;;;20.49;100.00
24858;BME280;12935;50.782;6.074;2023-08-21T00:58:14;100099.03;;;20.49;100.00
24858;BME280;12935;50.782;6.074;2023-08-21T01:00:41;100105.59;;;20.55;100.00
24858;BME280;12935;50.782;6.074;2023-08-21T01:03:06;100104.38;;;20.56;100.00
24858;BME280;12935;50.782;6.074;2023-08-21T01:05:34;100103.47;;;20.59;100.00
24858;BME280;12935;50.782;6.074;2023-08-21T01:08:06;100111.56;;;20.66;100.00
24858;BME280;12935;50.782;6.074;2023-08-21T01:13:23;100109.13;;;20.55;100.00
24858;BME280;12935;50.782;6.074;2023-08-21T01:15:51;100110.38;;;20.42;100.00
24858;BME280;12935;50.782;6.074;2023-08-21T01:18:20;100109.34;;;20.48;100.00
24858;BME280;12935;50.782;6.074;2023-08-21T01:20:45;100114.81;;;20.52;100.00
24858;BME280;12935;50.782;6.074;2023-08-21T01:23:27;100113.03;;;20.58;100.00
24858;BME280;12935;50.782;6.074;2023-08-21T01:25:52;100118.00;;;20.63;100.00
24858;BME280;12935;50.782;6.074;2023-08-21T01:28:18;100117.09;;;20.66;100.00
24858;BME280;12935;50.782;6.074;2023-08-21T01:30:43;100106.13;;;20.50;100.00
24858;BME280;12935;50.782;6.074;2023-08-21T01:33:10;100114.50;;;20.37;100.00
24858;BME280;12935;50.782;6.074;2023-08-21T01:35:38;100104.25;;;20.34;100.00
24858;BME280;12935;50.782;6.074;2023-08-21T01:38:03;100118.59;;;20.45;100.00
24858;BME280;12935;50.782;6.074;2023-08-21T01:40:29;100108.47;;;20.51;100.00
24858;BME280;12935;50.782;6.074;2023-08-21T01:42:55;100108.38;;;20.55;100.00
24858;BME280;12935;50.782;6.074;2023-08-21T01:45:21;100113.03;;;20.58;100.00
24858;BME280;12935;50.782;6.074;2023-08-21T01:47:46;100107.03;;;20.59;100.00
24858;BME280;12935;50.782;6.074;2023-08-21T01:50:11;100108.81;;;20.53;100.00
24858;BME280;12935;50.782;6.074;2023-08-21T01:52:37;100110.81;;;20.53;100.00
24858;BME280;12935;50.782;6.074;2023-08-21T01:55:02;100105.69;;;20.51;100.00
24858;BME280;12935;50.782;6.074;2023-08-21T01:57:29;100105.50;;;20.46;100.00
24858;BME280;12935;50.782;6.074;2023-08-21T01:59:54;100106.47;;;20.52;100.00
24858;BME280;12935;50.782;6.074;2023-08-21T02:02:19;100102.81;;;20.55;100.00
24858;BME280;12935;50.782;6.074;2023-08-21T02:04:44;100102.91;;;20.51;100.00
24858;BME280;12935;50.782;6.074;2023-08-21T02:07:10;100107.50;;;20.45;100.00
24858;BME280;12935;50.782;6.074;2023-08-21T02:09:35;100113.91;;;20.17;100.00
24858;BME280;12935;50.782;6.074;2023-08-21T02:12:00;100113.03;;;20.07;100.00
24858;BME280;12935;50.782;6.074;2023-08-21T02:14:26;100111.38;;;19.97;100.00
24858;BME280;12935;50.782;6.074;2023-08-21T02:16:51;100110.25;;;19.82;100.00
24858;BME280;12935;50.782;6.074;2023-08-21T02:19:16;100110.88;;;19.73;100.00
24858;BME280;12935;50.782;6.074;2023-08-21T02:21:42;100111.66;;;19.74;100.00
24858;BME280;12935;50.782;6.074;2023-08-21T02:24:07;100115.31;;;19.71;100.00
24858;BME280;12935;50.782;6.074;2023-08-21T02:26:32;100109.56;;;19.78;100.00
24858;BME280;12935;50.782;6.074;2023-08-21T02:28:58;100113.91;;;19.91;100.00
24858;BME280;12935;50.782;6.074;2023-08-21T02:31:23;100109.91;;;19.92;100.00
24858;BME280;12935;50.782;6.074;2023-08-21T02:33:48;100101.44;;;19.83;100.00
24858;BME280;12935;50.782;6.074;2023-08-21T02:36:15;100115.69;;;19.98;100.00
24858;BME280;12935;50.782;6.074;2023-08-21T02:38:40;100115.34;;;19.96;100.00
24858;BME280;12935;50.782;6.074;2023-08-21T02:41:06;100116.69;;;20.04;100.00
24858;BME280;12935;50.782;6.074;2023-08-21T02:43:31;100116.56;;;20.08;100.00
24858;BME280;12935;50.782;6.074;2023-08-21T02:45:56;100114.13;;;19.97;100.00
24858;BME280;12935;50.782;6.074;2023-08-21T02:48:22;100113.56;;;19.89;100.00
24858;BME280;12935;50.782;6.074;2023-08-21T02:50:48;100120.34;;;20.01;100.00
24858;BME280;12935;50.782;6.074;2023-08-21T02:53:14;100107.56;;;19.91;100.00
24858;BME280;12935;50.782;6.074;2023-08-21T02:55:39;100115.34;;;19.96;100.00
24858;BME280;12935;50.782;6.074;2023-08-21T02:58:04;100112.88;;;19.85;100.00
24858;BME280;12935;50.782;6.074;2023-08-21T03:00:29;100110.88;;;19.73;100.00
24858;BME280;12935;50.782;6.074;2023-08-21T03:02:55;100113.78;;;19.82;100.00
24858;BME280;12935;50.782;6.074;2023-08-21T03:05:20;100120.91;;;19.96;100.00
24858;BME280;12935;50.782;6.074;2023-08-21T03:07:45;100108.25;;;19.95;100.00
24858;BME280;12935;50.782;6.074;2023-08-21T03:10:10;100116.56;;;19.95;100.00
24858;BME280;12935;50.782;6.074;2023-08-21T03:12:36;100114.44;;;19.99;100.00
24858;BME280;12935;50.782;6.074;2023-08-21T03:15:02;100109.81;;;19.96;100.00
24858;BME280;12935;50.782;6.074;2023-08-21T03:17:28;100107.91;;;19.80;100.00
24858;BME280;12935;50.782;6.074;2023-08-21T03:19:53;100107.75;;;19.71;100.00
24858;BME280;12935;50.782;6.074;2023-08-21T03:22:18;100109.22;;;19.76;100.00
24858;BME280;12935;50.782;6.074;2023-08-21T03:24:43;100104.91;;;19.87;100.00
24858;BME280;12935;50.782;6.074;2023-08-21T03:27:09;100103.78;;;19.85;100.00
24858;BME280;12935;50.782;6.074;2023-08-21T03:29:34;100099.34;;;19.75;100.00
24858;BME280;12935;50.782;6.074;2023-08-21T03:31:59;100095.13;;;19.70;100.00
24858;BME280;12935;50.782;6.074;2023-08-21T03:34:24;100087.69;;;19.67;100.00
24858;BME280;12935;50.782;6.074;2023-08-21T03:36:50;100084.16;;;19.67;100.00
24858;BME280;12935;50.782;6.074;2023-08-21T03:39:15;100091.47;;;19.73;100.00
24858;BME280;12935;50.782;6.074;2023-08-21T03:41:40;100089.47;;;19.74;100.00
24858;BME280;12935;50.782;6.074;2023-08-21T03:44:06;100089.13;;;19.72;100.00
24858;BME280;12935;50.782;6.074;2023-08-21T03:46:31;100098.78;;;19.67;100.00
24858;BME280;12935;50.782;6.074;2023-08-21T03:48:56;100092.22;;;19.61;100.00
24858;BME280;12935;50.782;6.074;2023-08-21T03:51:22;100092.69;;;19.43;100.00
24858;BME280;12935;50.782;6.074;2023-08-21T03:53:47;100084.38;;;19.43;100.00
24858;BME280;12935;50.782;6.074;2023-08-21T03:56:12;100082.50;;;19.40;100.00
24858;BME280;12935;50.782;6.074;2023-08-21T03:58:38;100091.56;;;19.28;100.00
24858;BME280;12935;50.782;6.074;2023-08-21T04:01:03;100093.16;;;19.13;100.00
24858;BME280;12935;50.782;6.074;2023-08-21T04:03:29;100091.72;;;19.21;100.00
24858;BME280;12935;50.782;6.074;2023-08-21T04:05:54;100096.31;;;19.27;100.00
24858;BME280;12935;50.782;6.074;2023-08-21T04:08:21;100094.84;;;19.23;100.00
24858;BME280;12935;50.782;6.074;2023-08-21T04:10:46;100097.53;;;19.26;100.00
24858;BME280;12935;50.782;6.074;2023-08-21T04:13:12;100101.06;;;19.27;100.00
24858;BME280;12935;50.782;6.074;2023-08-21T04:15:37;100104.09;;;19.33;100.00
24858;BME280;12935;50.782;6.074;2023-08-21T04:18:03;100105.66;;;19.34;100.00
24858;BME280;12935;50.782;6.074;2023-08-21T04:20:28;100111.81;;;19.25;100.00
24858;BME280;12935;50.782;6.074;2023-08-21T04:22:53;100116.66;;;19.21;100.00
24858;BME280;12935;50.782;6.074;2023-08-21T04:25:19;100121.13;;;19.18;100.00
24858;BME280;12935;50.782;6.074;2023-08-21T04:27:44;100127.53;;;19.15;100.00
24858;BME280;12935;50.782;6.074;2023-08-21T04:30:10;100125.97;;;19.14;100.00
24858;BME280;12935;50.782;6.074;2023-08-21T04:32:35;100131.84;;;19.16;100.00
24858;BME280;12935;50.782;6.074;2023-08-21T04:35:01;100134.53;;;19.20;100.00
24858;BME280;12935;50.782;6.074;2023-08-21T04:37:26;100138.06;;;19.20;100.00
24858;BME280;12935;50.782;6.074;2023-08-21T04:39:52;100133.19;;;19.24;100.00
24858;BME280;12935;50.782;6.074;2023-08-21T04:42:18;100131.66;;;19.23;100.00
24858;BME280;12935;50.782;6.074;2023-08-21T04:44:43;100141.91;;;19.10;100.00
24858;BME280;12935;50.782;6.074;2023-08-21T04:47:24;100140.97;;;19.01;100.00
24858;BME280;12935;50.782;6.074;2023-08-21T04:49:51;100138.34;;;19.10;100.00
24858;BME280;12935;50.782;6.074;2023-08-21T04:52:17;100146.88;;;19.03;100.00
24858;BME280;12935;50.782;6.074;2023-08-21T04:54:43;100151.28;;;19.00;100.00
24858;BME280;12935;50.782;6.074;2023-08-21T04:57:08;100157.41;;;18.91;100.00
24858;BME280;12935;50.782;6.074;2023-08-21T04:59:35;100155.44;;;18.92;100.00
24858;BME280;12935;50.782;6.074;2023-08-21T05:02:01;100157.41;;;18.91;100.00
24858;BME280;12935;50.782;6.074;2023-08-21T05:04:26;100154.41;;;18.70;100.00
24858;BME280;12935;50.782;6.074;2023-08-21T05:06:52;100151.19;;;18.55;100.00
24858;BME280;12935;50.782;6.074;2023-08-21T05:09:17;100147.28;;;18.52;100.00
24858;BME280;12935;50.782;6.074;2023-08-21T05:11:42;100147.22;;;18.56;100.00
24858;BME280;12935;50.782;6.074;2023-08-21T05:14:07;100153.25;;;18.51;100.00
24858;BME280;12935;50.782;6.074;2023-08-21T05:16:33;100151.41;;;18.44;100.00
24858;BME280;12935;50.782;6.074;2023-08-21T05:18:58;100155.31;;;18.47;100.00
24858;BME280;12935;50.782;6.074;2023-08-21T05:21:24;100155.06;;;18.41;100.00
24858;BME280;12935;50.782;6.074;2023-08-21T05:23:49;100153.50;;;18.40;100.00
24858;BME280;12935;50.782;6.074;2023-08-21T05:26:14;100167.25;;;18.44;100.00
24858;BME280;12935;50.782;6.074;2023-08-21T05:28:39;100157.00;;;18.61;100.00
24858;BME280;12935;50.782;6.074;2023-08-21T05:31:05;100164.94;;;18.75;100.00
24858;BME280;12935;50.782;6.074;2023-08-21T05:33:30;100162.72;;;18.86;100.00
24858;BME280;12935;50.782;6.074;2023-08-21T05:35:56;100162.44;;;18.97;100.00
24858;BME280;12935;50.782;6.074;2023-08-21T05:38:22;100167.47;;;19.02;100.00
24858;BME280;12935;50.782;6.074;2023-08-21T05:40:48;100157.59;;;19.01;100.00
24858;BME280;12935;50.782;6.074;2023-08-21T05:43:13;100169.50;;;19.14;100.00
24858;BME280;12935;50.782;6.074;2023-08-21T05:45:39;100172.00;;;19.24;100.00
24858;BME280;12935;50.782;6.074;2023-08-21T05:48:04;100168.78;;;19.26;100.00
24858;BME280;12935;50.782;6.074;2023-08-21T05:50:29;100174.94;;;19.34;100.00
24858;BME280;12935;50.782;6.074;2023-08-21T05:52:55;100171.88;;;19.44;100.00
24858;BME280;12935;50.782;6.074;2023-08-21T05:55:22;100184.03;;;19.50;100.00
24858;BME280;12935;50.782;6.074;2023-08-21T05:57:47;100180.47;;;19.50;100.00
24858;BME280;12935;50.782;6.074;2023-08-21T06:00:13;100180.22;;;19.28;100.00
24858;BME280;12935;50.782;6.074;2023-08-21T06:02:39;100187.84;;;19.24;100.00
24858;BME280;12935;50.782;6.074;2023-08-21T06:05:05;100177.41;;;19.15;100.00
24858;BME280;12935;50.782;6.074;2023-08-21T06:07:32;100178.19;;;19.16;100.00
24858;BME280;12935;50.782;6.074;2023-08-21T06:09:57;100196.50;;;19.26;100.00
24858;BME280;12935;50.782;6.074;2023-08-21T06:12:22;100181.75;;;19.45;100.00
24858;BME280;12935;50.782;6.074;2023-08-21T06:14:48;100179.16;;;19.38;100.00
24858;BME280;12935;50.782;6.074;2023-08-21T06:17:13;100186.94;;;19.43;100.00
24858;BME280;12935;50.782;6.074;2023-08-21T06:19:39;100180.16;;;19.60;100.00
24858;BME280;12935;50.782;6.074;2023-08-21T06:22:04;100189.22;;;19.77;100.00
24858;BME280;12935;50.782;6.074;2023-08-21T06:24:30;100183.91;;;19.83;100.00
24858;BME280;12935;50.782;6.074;2023-08-21T06:26:55;100186.91;;;19.88;100.00
24858;BME280;12935;50.782;6.074;2023-08-21T06:29:21;100184.34;;;19.81;100.00
24858;BME280;12935;50.782;6.074;2023-08-21T06:31:46;100196.16;;;19.98;100.00
24858;BME280;12935;50.782;6.074;2023-08-21T06:34:12;100189.03;;;19.97;100.00
24858;BME280;12935;50.782;6.074;2023-08-21T06:36:37;100194.34;;;19.91;100.00
24858;BME280;12935;50.782;6.074;2023-08-21T06:39:03;100204.22;;;19.92;100.00
24858;BME280;12935;50.782;6.074;2023-08-21T06:41:29;100196.34;;;19.91;100.00
24858;BME280;12935;50.782;6.074;2023-08-21T06:43:54;100195.56;;;20.03;100.00
24858;BME280;12935;50.782;6.074;2023-08-21T06:46:19;100198.34;;;20.03;100.00
24858;BME280;12935;50.782;6.074;2023-08-21T06:48:45;100202.94;;;20.22;100.00
24858;BME280;12935;50.782;6.074;2023-08-21T06:51:11;100188.28;;;20.22;100.00
24858;BME280;12935;50.782;6.074;2023-08-21T06:53:36;100203.81;;;20.19;100.00
24858;BME280;12935;50.782;6.074;2023-08-21T06:56:02;100205.03;;;20.31;100.00
24858;BME280;12935;50.782;6.074;2023-08-21T06:58:27;100213.31;;;20.47;100.00
24858;BME280;12935;50.782;6.074;2023-08-21T07:00:54;100213.53;;;20.40;100.00
24858;BME280;12935;50.782;6.074;2023-08-21T07:03:20;100217.09;;;20.53;100.00
24858;BME280;12935;50.782;6.074;2023-08-21T07:05:55;100210.75;;;20.65;100.00
24858;BME280;12935;50.782;6.074;2023-08-21T07:08:21;100215.09;;;20.66;100.00
24858;BME280;12935;50.782;6.074;2023-08-21T07:10:47;100218.06;;;20.47;100.00
24858;BME280;12935;50.782;6.074;2023-08-21T07:13:12;100218.53;;;20.58;100.00
24858;BME280;12935;50.782;6.074;2023-08-21T07:15:37;100209.31;;;20.48;100.00
24858;BME280;12935;50.782;6.074;2023-08-21T07:18:03;100215.09;;;20.54;100.00
24858;BME280;12935;50.782;6.074;2023-08-21T07:20:28;100214.88;;;20.74;100.00
24858;BME280;12935;50.782;6.074;2023-08-21T07:22:53;100217.06;;;20.79;100.00
24858;BME280;12935;50.782;6.074;2023-08-21T07:25:19;100218.06;;;20.85;100.00
24858;BME280;12935;50.782;6.074;2023-08-21T07:27:44;100219.97;;;20.88;100.00
24858;BME280;12935;50.782;6.074;2023-08-21T07:30:10;100219.63;;;20.86;100.00
24858;BME280;12935;50.782;6.074;2023-08-21T07:32:36;100224.75;;;20.75;100.00
24858;BME280;12935;50.782;6.074;2023-08-21T07:35:01;100235.75;;;20.91;100.00
24858;BME280;12935;50.782;6.074;2023-08-21T07:37:27;100232.41;;;20.83;100.00
24858;BME280;12935;50.782;6.074;2023-08-21T07:39:52;100223.09;;;20.77;100.00
24858;BME280;12935;50.782;6.074;2023-08-21T07:42:18;100228.97;;;20.79;100.00
24858;BME280;12935;50.782;6.074;2023-08-21T07:44:44;100222.75;;;20.88;100.00
24858;BME280;12935;50.782;6.074;2023-08-21T07:47:11;100229.28;;;20.94;100.00
24858;BME280;12935;50.782;6.074;2023-08-21T07:49:36;100226.63;;;21.03;100.00
24858;BME280;12935;50.782;6.074;2023-08-21T07:52:03;100224.72;;;21.00;100.00
24858;BME280;12935;50.782;6.074;2023-08-21T07:54:28;100223.84;;;20.90;100.00
24858;BME280;12935;50.782;6.074;2023-08-21T07:56:53;100227.28;;;20.94;100.00
24858;BME280;12935;50.782;6.074;2023-08-21T07:59:18;100225.06;;;21.02;100.00
24858;BME280;12935;50.782;6.074;2023-08-21T08:01:45;100213.50;;;21.04;100.00
24858;BME280;12935;50.782;6.074;2023-08-21T08:04:10;100227.47;;;21.25;100.00
24858;BME280;12935;50.782;6.074;2023-08-21T08:06:36;100227.56;;;21.34;100.00
24858;BME280;12935;50.782;6.074;2023-08-21T08:09:02;100218.66;;;21.40;100.00
24858;BME280;12935;50.782;6.074;2023-08-21T08:11:29;100222.06;;;21.44;100.00
24858;BME280;12935;50.782;6.074;2023-08-21T08:13:55;100222.19;;;21.53;100.00
24858;BME280;12935;50.782;6.074;2023-08-21T08:16:20;100226.50;;;21.76;100.00
24858;BME280;12935;50.782;6.074;2023-08-21T08:18:45;100229.13;;;21.70;100.00
24858;BME280;12935;50.782;6.074;2023-08-21T08:21:11;100222.91;;;21.88;100.00
24858;BME280;12935;50.782;6.074;2023-08-21T08:23:36;100220.25;;;21.84;100.00
24858;BME280;12935;50.782;6.074;2023-08-21T08:26:02;100225.97;;;22.02;100.00
24858;BME280;12935;50.782;6.074;2023-08-21T08:28:28;100225.09;;;21.93;100.00
24858;BME280;12935;50.782;6.074;2023-08-21T08:30:54;100225.28;;;21.98;100.00
24858;BME280;12935;50.782;6.074;2023-08-21T08:33:20;100225.25;;;22.11;100.00
24858;BME280;12935;50.782;6.074;2023-08-21T08:35:45;100230.34;;;22.13;100.00
24858;BME280;12935;50.782;6.074;2023-08-21T08:38:10;100229.03;;;22.26;100.00
24858;BME280;12935;50.782;6.074;2023-08-21T08:40:45;100222.50;;;22.20;100.00
24858;BME280;12935;50.782;6.074;2023-08-21T08:43:12;100235.75;;;22.38;100.00
24858;BME280;12935;50.782;6.074;2023-08-21T08:45:40;100235.03;;;22.47;100.00
24858;BME280;12935;50.782;6.074;2023-08-21T08:48:06;100228.34;;;22.44;100.00
24858;BME280;12935;50.782;6.074;2023-08-21T08:50:34;100244.03;;;22.51;100.00
24858;BME280;12935;50.782;6.074;2023-08-21T08:53:00;100246.97;;;22.56;100.00
24858;BME280;12935;50.782;6.074;2023-08-21T08:55:26;100256.56;;;22.55;100.00
24858;BME280;12935;50.782;6.074;2023-08-21T08:57:55;100243.50;;;22.74;100.00
24858;BME280;12935;50.782;6.074;2023-08-21T09:00:20;100250.63;;;22.75;100.00
24858;BME280;12935;50.782;6.074;2023-08-21T09:02:46;100245.25;;;22.81;100.00
24858;BME280;12935;50.782;6.074;2023-08-21T09:05:12;100247.28;;;22.89;100.00
24858;BME280;12935;50.782;6.074;2023-08-21T09:07:38;100247.59;;;22.91;100.00
24858;BME280;12935;50.782;6.074;2023-08-21T09:10:04;100239.56;;;22.93;100.00
24858;BME280;12935;50.782;6.074;2023-08-21T09:12:31;100238.34;;;23.03;100.00
24858;BME280;12935;50.782;6.074;2023-08-21T09:14:58;100254.34;;;23.12;100.00
24858;BME280;12935;50.782;6.074;2023-08-21T09:17:24;100252.16;;;23.07;100.00
24858;BME280;12935;50.782;6.074;2023-08-21T09:19:49;100249.22;;;23.11;100.00
24858;BME280;12935;50.782;6.074;2023-08-21T09:22:16;100248.63;;;23.34;100.00
24858;BME280;12935;50.782;6.074;2023-08-21T09:27:31;100240.47;;;23.58;100.00
24858;BME280;12935;50.782;6.074;2023-08-21T09:29:57;100234.88;;;23.67;100.00
24858;BME280;12935;50.782;6.074;2023-08-21T09:32:22;100245.56;;;23.96;100.00
24858;BME280;12935;50.782;6.074;2023-08-21T09:34:47;100246.00;;;23.94;100.00
24858;BME280;12935;50.782;6.074;2023-08-21T09:37:13;100251.09;;;24.14;100.00
24858;BME280;12935;50.782;6.074;2023-08-21T09:39:38;100242.81;;;24.47;100.00
24858;BME280;12935;50.782;6.074;2023-08-21T09:42:07;100235.84;;;24.52;100.00
24858;BME280;12935;50.782;6.074;2023-08-21T09:44:39;100236.69;;;24.67;100.00
24858;BME280;12935;50.782;6.074;2023-08-21T09:47:10;100234.91;;;24.45;100.00
24858;BME280;12935;50.782;6.074;2023-08-21T09:49:37;100244.22;;;24.42;100.00
24858;BME280;12935;50.782;6.074;2023-08-21T09:52:05;100227.06;;;24.26;100.00
24858;BME280;12935;50.782;6.074;2023-08-21T09:54:33;100228.13;;;24.37;100.00
24858;BME280;12935;50.782;6.074;2023-08-21T09:57:02;100232.78;;;24.73;100.00
24858;BME280;12935;50.782;6.074;2023-08-21T09:59:32;100231.31;;;24.87;100.00
24858;BME280;12935;50.782;6.074;2023-08-21T10:01:59;100231.72;;;25.04;100.00
24858;BME280;12935;50.782;6.074;2023-08-21T10:04:27;100225.75;;;25.35;100.00
24858;BME280;12935;50.782;6.074;2023-08-21T10:06:54;100231.19;;;25.62;99.17
24858;BME280;12935;50.782;6.074;2023-08-21T10:09:21;100220.78;;;25.92;99.70
24858;BME280;12935;50.782;6.074;2023-08-21T10:11:48;100225.44;;;26.10;94.96
24858;BME280;12935;50.782;6.074;2023-08-21T10:14:14;100227.66;;;26.50;96.53
24858;BME280;12935;50.782;6.074;2023-08-21T10:16:41;100221.56;;;26.51;89.84
24858;BME280;12935;50.782;6.074;2023-08-21T10:19:06;100227.00;;;26.40;89.24
24858;BME280;12935;50.782;6.074;2023-08-21T10:21:35;100214.78;;;26.58;90.98
24858;BME280;12935;50.782;6.074;2023-08-21T10:24:04;100225.41;;;26.69;88.79
24858;BME280;12935;50.782;6.074;2023-08-21T10:26:30;100220.03;;;26.85;84.79
24858;BME280;12935;50.782;6.074;2023-08-21T10:29:02;100226.72;;;27.08;85.01
24858;BME280;12935;50.782;6.074;2023-08-21T10:31:34;100229.63;;;27.34;84.44
24858;BME280;12935;50.782;6.074;2023-08-21T10:34:03;100225.38;;;27.39;79.36
24858;BME280;12935;50.782;6.074;2023-08-21T10:39:18;100223.31;;;27.59;78.61
24858;BME280;12935;50.782;6.074;2023-08-21T10:42:00;100224.94;;;27.66;76.64
24858;BME280;12935;50.782;6.074;2023-08-21T10:52:23;100224.91;;;28.18;72.82
24858;BME280;12935;50.782;6.074;2023-08-21T10:54:50;100222.53;;;28.37;69.49
24858;BME280;12935;50.782;6.074;2023-08-21T10:57:16;100220.41;;;28.57;70.08
24858;BME280;12935;50.782;6.074;2023-08-21T10:59:57;100216.53;;;28.86;69.17
24858;BME280;12935;50.782;6.074;2023-08-21T11:02:24;100222.81;;;29.13;64.26
24858;BME280;12935;50.782;6.074;2023-08-21T11:04:50;100225.13;;;29.14;67.06
24858;BME280;12935;50.782;6.074;2023-08-21T11:07:16;100224.84;;;29.12;62.83
24858;BME280;12935;50.782;6.074;2023-08-21T11:09:42;100222.22;;;28.97;63.31
24858;BME280;12935;50.782;6.074;2023-08-21T11:12:09;100218.06;;;28.87;63.74
24858;BME280;12935;50.782;6.074;2023-08-21T11:14:35;100214.53;;;28.92;63.58
24858;BME280;12935;50.782;6.074;2023-08-21T11:17:01;100228.16;;;28.37;65.70
24858;BME280;12935;50.782;6.074;2023-08-21T11:19:26;100224.19;;;28.80;67.41
24858;BME280;12935;50.782;6.074;2023-08-21T11:21:52;100215.72;;;28.43;66.15
24858;BME280;12935;50.782;6.074;2023-08-21T11:24:17;100228.38;;;28.27;67.53
24858;BME280;12935;50.782;6.074;2023-08-21T11:26:43;100218.03;;;28.45;66.22
24858;BME280;12935;50.782;6.074;2023-08-21T11:29:08;100232.00;;;28.71;63.92
24858;BME280;12935;50.782;6.074;2023-08-21T11:31:33;100230.22;;;29.10;62.77
24858;BME280;12935;50.782;6.074;2023-08-21T11:33:59;100238.22;;;29.28;60.61
24858;BME280;12935;50.782;6.074;2023-08-21T11:36:24;100240.63;;;29.47;58.47
24858;BME280;12935;50.782;6.074;2023-08-21T11:39:00;100241.78;;;29.18;60.07
24858;BME280;12935;50.782;6.074;2023-08-21T11:41:25;100237.84;;;29.52;58.06
24858;BME280;12935;50.782;6.074;2023-08-21T11:43:51;100240.16;;;29.54;56.34
24858;BME280;12935;50.782;6.074;2023-08-21T11:46:18;100237.16;;;29.91;56.49
24858;BME280;12935;50.782;6.074;2023-08-21T11:48:44;100237.47;;;29.98;53.09
24858;BME280;12935;50.782;6.074;2023-08-21T11:51:10;100238.78;;;30.14;51.76
24858;BME280;12935;50.782;6.074;2023-08-21T11:53:41;100237.25;;;30.69;51.13
24858;BME280;12935;50.782;6.074;2023-08-21T11:56:16;100230.81;;;30.74;49.31
24858;BME280;12935;50.782;6.074;2023-08-21T11:58:44;100227.28;;;31.48;48.25
24858;BME280;12935;50.782;6.074;2023-08-21T12:01:10;100223.03;;;31.19;49.09
24858;BME280;12935;50.782;6.074;2023-08-21T12:03:37;100224.00;;;31.33;46.60
24858;BME280;12935;50.782;6.074;2023-08-21T12:06:09;100229.25;;;30.95;47.19
24858;BME280;12935;50.782;6.074;2023-08-21T12:08:34;100227.06;;;31.41;48.66
24858;BME280;12935;50.782;6.074;2023-08-21T12:11:00;100213.63;;;31.58;45.19
24858;BME280;12935;50.782;6.074;2023-08-21T12:13:25;100224.03;;;31.22;45.98
24858;BME280;12935;50.782;6.074;2023-08-21T12:15:51;100219.25;;;30.94;47.66
24858;BME280;12935;50.782;6.074;2023-08-21T12:18:16;100208.63;;;31.23;48.67
24858;BME280;12935;50.782;6.074;2023-08-21T12:20:41;100205.72;;;31.92;47.99
24858;BME280;12935;50.782;6.074;2023-08-21T12:23:07;100212.22;;;31.23;44.42
24858;BME280;12935;50.782;6.074;2023-08-21T12:25:32;100215.56;;;31.80;45.06
24858;BME280;12935;50.782;6.074;2023-08-21T12:27:58;100207.19;;;31.57;44.38
24858;BME280;12935;50.782;6.074;2023-08-21T12:30:23;100199.94;;;31.73;43.77
24858;BME280;12935;50.782;6.074;2023-08-21T12:32:48;100209.97;;;31.68;45.88
24858;BME280;12935;50.782;6.074;2023-08-21T12:35:14;100199.66;;;32.72;42.99
24858;BME280;12935;50.782;6.074;2023-08-21T12:37:39;100205.59;;;32.08;42.56
24858;BME280;12935;50.782;6.074;2023-08-21T12:40:05;100200.41;;;32.97;44.53
24858;BME280;12935;50.782;6.074;2023-08-21T12:42:30;100188.00;;;32.27;42.47
24858;BME280;12935;50.782;6.074;2023-08-21T12:44:56;100198.06;;;32.17;42.33
24858;BME280;12935;50.782;6.074;2023-08-21T12:47:21;100194.16;;;32.55;42.37
24858;BME280;12935;50.782;6.074;2023-08-21T12:49:46;100202.00;;;32.08;42.17
24858;BME280;12935;50.782;6.074;2023-08-21T12:52:12;100193.94;;;32.18;44.17